createdAt,value
2023-04-16T00:00:49.882Z,102334.94
2023-04-16T00:03:16.772Z,102328.56
2023-04-16T00:05:43.229Z,102330.16
2023-04-16T00:08:09.581Z,102333.59
2023-04-16T00:10:35.946Z,102330.94
2023-04-16T00:13:02.411Z,102333.59
2023-04-16T00:15:28.734Z,102335.19
2023-04-16T00:17:55.128Z,102341.53
2023-04-16T00:20:21.496Z,102324.84
2023-04-16T00:22:47.854Z,102336.25
2023-04-16T00:25:14.606Z,102327.78
2023-04-16T00:27:41.003Z,102333.06
2023-04-16T00:30:07.842Z,102336.25
2023-04-16T00:32:34.349Z,102336.25
2023-04-16T00:35:00.658Z,102337.31
2023-04-16T00:37:27.034Z,102336.78
2023-04-16T00:39:53.382Z,102340.50
2023-04-16T00:42:20.048Z,102328.56
2023-04-16T00:44:46.440Z,102334.66
2023-04-16T00:47:12.867Z,102334.66
2023-04-16T00:49:39.395Z,102342.88
2023-04-16T00:52:06.227Z,102338.88
2023-04-16T00:54:32.983Z,102334.13
2023-04-16T00:56:59.984Z,102334.41
2023-04-16T00:59:27.517Z,102332.78
2023-04-16T01:01:53.950Z,102332.28
2023-04-16T01:04:21.158Z,102329.91
2023-04-16T01:06:47.625Z,102331.47
2023-04-16T01:09:13.965Z,102329.91
2023-04-16T01:11:40.307Z,102337.84
2023-04-16T01:14:06.757Z,102330.97
2023-04-16T01:16:33.143Z,102336.25
2023-04-16T01:18:59.533Z,102334.41
2023-04-16T01:21:26.425Z,102320.38
2023-04-16T01:23:52.802Z,102329.09
2023-04-16T01:26:19.102Z,102333.63
2023-04-16T01:28:45.576Z,102338.91
2023-04-16T01:31:11.974Z,102336.25
2023-04-16T01:33:38.321Z,102344.19
2023-04-16T01:36:04.807Z,102338.88
2023-04-16T01:38:31.191Z,102339.44
2023-04-16T01:40:58.003Z,102335.19
2023-04-16T01:43:24.323Z,102343.66
2023-04-16T01:45:50.914Z,102345.25
2023-04-16T01:48:17.259Z,102343.94
2023-04-16T01:50:43.608Z,102347.91
2023-04-16T01:53:10.202Z,102346.31
2023-04-16T01:55:36.510Z,102347.38
2023-04-16T01:58:02.919Z,102348.19
2023-04-16T02:00:29.350Z,102348.44
2023-04-16T02:02:55.940Z,102350.81
2023-04-16T02:05:22.362Z,102353.22
2023-04-16T02:07:48.742Z,102353.22
2023-04-16T02:10:15.198Z,102348.69
2023-04-16T02:12:41.561Z,102340.50
2023-04-16T02:15:08.340Z,102349.25
2023-04-16T02:17:34.737Z,102354.28
2023-04-16T02:20:03.185Z,102341.81
2023-04-16T02:22:29.607Z,102343.41
2023-04-16T02:24:55.916Z,102337.84
2023-04-16T02:27:22.227Z,102339.44
2023-04-16T02:29:48.692Z,102342.59
2023-04-16T02:32:15.067Z,102339.94
2023-04-16T02:34:42.532Z,102341.53
2023-04-16T02:37:09.366Z,102344.19
2023-04-16T02:39:35.705Z,102345.81
2023-04-16T02:42:02.635Z,102346.34
2023-04-16T02:44:29.374Z,102349.78
2023-04-16T02:46:55.782Z,102346.06
2023-04-16T02:49:22.116Z,102349.78
2023-04-16T02:51:48.445Z,102349.00
2023-04-16T02:54:14.756Z,102350.59
2023-04-16T02:56:41.063Z,102347.94
2023-04-16T02:59:07.552Z,102353.75
2023-04-16T03:01:34.200Z,102359.84
2023-04-16T03:04:00.550Z,102355.63
2023-04-16T03:06:27.022Z,102353.75
2023-04-16T03:08:53.336Z,102346.88
2023-04-16T03:11:20.287Z,102348.72
2023-04-16T03:13:46.773Z,102352.16
2023-04-16T03:16:13.160Z,102359.06
2023-04-16T03:18:39.486Z,102357.47
2023-04-16T03:21:06.187Z,102364.34
2023-04-16T03:23:32.521Z,102362.78
2023-04-16T03:25:58.876Z,102363.56
2023-04-16T03:28:26.134Z,102364.63
2023-04-16T03:30:53.521Z,102369.16
2023-04-16T03:33:20.592Z,102375.22
2023-04-16T03:35:46.974Z,102371.78
2023-04-16T03:38:13.326Z,102368.06
2023-04-16T03:40:39.652Z,102368.06
2023-04-16T03:43:06.257Z,102374.97
2023-04-16T03:45:32.565Z,102372.06
2023-04-16T03:47:59.053Z,102371.78
2023-04-16T03:50:25.704Z,102376.03
2023-04-16T03:52:52.030Z,102376.31
2023-04-16T03:55:18.335Z,102381.88
2023-04-16T03:57:44.669Z,102378.16
2023-04-16T04:00:11.653Z,102373.66
2023-04-16T04:02:38.053Z,102375.22
2023-04-16T04:05:04.963Z,102380.53
2023-04-16T04:07:31.371Z,102377.38
2023-04-16T04:09:57.686Z,102378.69
2023-04-16T04:12:24.019Z,102378.69
2023-04-16T04:14:50.709Z,102374.97
2023-04-16T04:17:17.032Z,102376.81
2023-04-16T04:19:54.247Z,102373.38
2023-04-16T04:22:27.256Z,102369.66
2023-04-16T04:24:53.589Z,102381.88
2023-04-16T04:27:19.953Z,102384.53
2023-04-16T04:29:46.586Z,102383.97
2023-04-16T04:32:12.968Z,102387.69
2023-04-16T04:34:39.301Z,102388.50
2023-04-16T04:37:05.647Z,102393.78
2023-04-16T04:39:31.995Z,102389.81
2023-04-16T04:41:58.402Z,102397.78
2023-04-16T04:44:24.709Z,102397.78
2023-04-16T04:46:51.074Z,102405.16
2023-04-16T04:49:17.479Z,102408.06
2023-04-16T04:51:43.844Z,102402.78
2023-04-16T04:54:10.212Z,102407.56
2023-04-16T04:56:36.546Z,102411.53
2023-04-16T04:59:02.866Z,102408.88
2023-04-16T05:01:29.279Z,102410.44
2023-04-16T05:03:55.805Z,102407.00
2023-04-16T05:06:22.170Z,102408.88
2023-04-16T05:08:48.552Z,102411.00
2023-04-16T05:11:14.973Z,102403.84
2023-04-16T05:13:41.273Z,102412.06
2023-04-16T05:16:07.729Z,102408.34
2023-04-16T05:18:34.098Z,102418.16
2023-04-16T05:21:00.477Z,102406.75
2023-04-16T05:23:26.823Z,102416.53
2023-04-16T05:25:53.145Z,102413.91
2023-04-16T05:28:19.462Z,102408.34
2023-04-16T05:30:46.040Z,102409.94
2023-04-16T05:33:12.396Z,102415.25
2023-04-16T05:35:38.721Z,102414.19
2023-04-16T05:38:05.179Z,102413.09
2023-04-16T05:40:32.097Z,102425.09
2023-04-16T05:42:58.397Z,102422.16
2023-04-16T05:45:26.666Z,102423.22
2023-04-16T05:47:54.216Z,102421.63
2023-04-16T05:50:20.613Z,102428.53
2023-04-16T05:52:46.968Z,102425.88
2023-04-16T05:55:13.289Z,102436.72
2023-04-16T05:57:39.657Z,102434.91
2023-04-16T06:00:06.836Z,102438.59
2023-04-16T06:02:33.637Z,102441.00
2023-04-16T06:05:00.283Z,102433.56
2023-04-16T06:07:26.609Z,102438.88
2023-04-16T06:09:52.948Z,102433.84
2023-04-16T06:12:19.270Z,102441.53
2023-04-16T06:14:45.610Z,102442.84
2023-04-16T06:17:12.159Z,102448.13
2023-04-16T06:19:38.488Z,102443.09
2023-04-16T06:22:06.395Z,102448.41
2023-04-16T06:24:32.933Z,102449.19
2023-04-16T06:26:59.242Z,102456.63
2023-04-16T06:29:33.671Z,102452.91
2023-04-16T06:32:07.771Z,102463.53
2023-04-16T06:34:34.134Z,102455.56
2023-04-16T06:37:01.177Z,102460.09
2023-04-16T06:39:27.498Z,102466.19
2023-04-16T06:41:53.888Z,102466.72
2023-04-16T06:44:20.234Z,102464.59
2023-04-16T06:46:46.552Z,102466.19
2023-04-16T06:49:12.939Z,102466.97
2023-04-16T06:51:39.290Z,102468.56
2023-04-16T06:54:06.111Z,102474.66
2023-04-16T06:56:32.485Z,102465.91
2023-04-16T06:59:00.831Z,102478.09
2023-04-16T07:01:28.000Z,102470.44
2023-04-16T07:03:54.778Z,102478.91
2023-04-16T07:06:21.249Z,102492.72
2023-04-16T07:08:47.615Z,102483.69
2023-04-16T07:11:14.135Z,102487.66
2023-04-16T07:13:40.864Z,102495.38
2023-04-16T07:16:07.457Z,102490.06
2023-04-16T07:18:33.821Z,102492.16
2023-04-16T07:21:00.352Z,102495.34
2023-04-16T07:23:26.665Z,102495.34
2023-04-16T07:25:53.025Z,102500.41
2023-04-16T07:28:20.168Z,102498.53
2023-04-16T07:30:46.527Z,102501.47
2023-04-16T07:33:12.852Z,102507.00
2023-04-16T07:35:39.204Z,102513.41
2023-04-16T07:38:05.996Z,102504.38
2023-04-16T07:40:33.023Z,102505.94
2023-04-16T07:42:59.376Z,102521.09
2023-04-16T07:45:25.698Z,102518.16
2023-04-16T07:47:52.116Z,102517.34
2023-04-16T07:50:19.408Z,102522.16
2023-04-16T07:52:47.218Z,102519.78
2023-04-16T07:55:13.581Z,102528.75
2023-04-16T07:57:41.020Z,102522.94
2023-04-16T08:00:08.376Z,102532.75
2023-04-16T08:02:34.948Z,102531.19
2023-04-16T08:05:01.508Z,102533.00
2023-04-16T08:07:27.900Z,102533.56
2023-04-16T08:09:54.544Z,102537.00
2023-04-16T08:12:21.287Z,102545.22
2023-04-16T08:14:48.475Z,102540.44
2023-04-16T08:17:15.516Z,102547.84
2023-04-16T08:19:42.744Z,102544.69
2023-04-16T08:22:09.270Z,102554.75
2023-04-16T08:24:35.718Z,102550.78
2023-04-16T08:27:15.113Z,102558.75
2023-04-16T08:29:44.607Z,102563.00
2023-04-16T08:32:11.073Z,102563.50
2023-04-16T08:34:37.618Z,102563.50
2023-04-16T08:37:03.991Z,102557.69
2023-04-16T08:39:30.442Z,102558.75
2023-04-16T08:41:57.966Z,102560.31
2023-04-16T08:44:27.644Z,102562.47
2023-04-16T08:46:59.060Z,102567.50
2023-04-16T08:49:26.966Z,102569.34
2023-04-16T08:51:55.102Z,102572.53
2023-04-16T08:54:56.875Z,102566.66
2023-04-16T08:57:26.765Z,102565.06
2023-04-16T08:59:55.091Z,102575.94
2023-04-16T09:02:21.839Z,102575.38
2023-04-16T09:04:50.561Z,102571.44
2023-04-16T09:07:19.451Z,102568.19
2023-04-16T09:09:49.666Z,102579.09
2023-04-16T09:12:17.348Z,102565.78
2023-04-16T09:14:46.934Z,102572.13
2023-04-16T09:17:14.033Z,102584.09
2023-04-16T09:19:40.437Z,102591.00
2023-04-16T09:22:06.745Z,102579.31
2023-04-16T09:24:34.324Z,102582.22
2023-04-16T09:27:00.949Z,102589.63
2023-04-16T09:29:38.246Z,102582.22
2023-04-16T09:32:06.906Z,102587.53
2023-04-16T09:34:34.412Z,102588.59
2023-04-16T09:37:17.535Z,102597.06
2023-04-16T09:39:44.960Z,102591.22
2023-04-16T09:42:12.152Z,102604.75
2023-04-16T09:44:38.914Z,102609.84
2023-04-16T09:47:07.727Z,102606.59
2023-04-16T09:49:43.643Z,102613.00
2023-04-16T09:52:17.853Z,102613.53
2023-04-16T09:54:51.638Z,102620.97
2023-04-16T09:57:22.977Z,102613.50
2023-04-16T09:59:53.987Z,102620.41
2023-04-16T10:02:20.874Z,102614.56
2023-04-16T10:04:51.663Z,102613.78
2023-04-16T10:07:18.985Z,102615.38
2023-04-16T10:09:48.354Z,102617.75
2023-04-16T10:12:15.947Z,102616.16
2023-04-16T10:14:42.646Z,102623.13
2023-04-16T10:17:09.836Z,102623.66
2023-04-16T10:19:36.818Z,102622.56
2023-04-16T10:22:03.851Z,102616.72
2023-04-16T10:24:31.893Z,102617.50
2023-04-16T10:26:59.513Z,102624.13
2023-04-16T10:29:27.842Z,102631.03
2023-04-16T10:31:55.994Z,102625.47
2023-04-16T10:34:24.210Z,102623.06
2023-04-16T10:36:52.888Z,102622.25
2023-04-16T10:39:22.426Z,102629.72
2023-04-16T10:41:49.414Z,102624.69
2023-04-16T10:44:17.760Z,102621.47
2023-04-16T10:46:51.226Z,102627.31
2023-04-16T10:49:24.392Z,102632.38
2023-04-16T10:51:58.991Z,102631.56
2023-04-16T10:54:32.082Z,102622.00
2023-04-16T10:57:04.260Z,102634.47
2023-04-16T10:59:33.357Z,102631.28
2023-04-16T11:02:01.794Z,102628.88
2023-04-16T11:04:34.032Z,102628.31
2023-04-16T11:07:02.914Z,102629.88
2023-04-16T11:10:01.951Z,102628.34
2023-04-16T11:12:47.155Z,102632.34
2023-04-16T11:15:19.495Z,102632.34
2023-04-16T11:17:47.843Z,102622.75
2023-04-16T11:20:21.850Z,102625.66
2023-04-16T11:22:49.453Z,102630.69
2023-04-16T11:25:27.148Z,102633.28
2023-04-16T11:27:54.543Z,102632.19
2023-04-16T11:30:33.761Z,102638.06
2023-04-16T11:33:04.101Z,102633.28
2023-04-16T11:35:30.529Z,102633.34
2023-04-16T11:37:58.026Z,102629.13
2023-04-16T11:40:25.261Z,102644.03
2023-04-16T11:42:51.605Z,102645.13
2023-04-16T11:45:21.031Z,102637.69
2023-04-16T11:47:52.171Z,102639.28
2023-04-16T11:50:18.770Z,102636.31
2023-04-16T11:52:45.244Z,102645.34
2023-04-16T11:55:11.952Z,102635.53
2023-04-16T11:57:38.328Z,102637.91
2023-04-16T12:00:13.956Z,102642.41
2023-04-16T12:02:45.944Z,102642.13
2023-04-16T12:05:31.819Z,102645.84
2023-04-16T12:07:59.640Z,102645.84
2023-04-16T12:10:27.023Z,102640.22
2023-04-16T12:12:53.426Z,102647.94
2023-04-16T12:15:19.795Z,102645.00
2023-04-16T12:17:46.174Z,102648.97
2023-04-16T12:20:15.308Z,102653.72
2023-04-16T12:22:47.293Z,102659.25
2023-04-16T12:25:15.788Z,102656.84
2023-04-16T12:27:54.050Z,102655.03
2023-04-16T12:30:22.829Z,102656.91
2023-04-16T12:32:51.530Z,102654.28
2023-04-16T12:35:31.684Z,102660.94
2023-04-16T12:37:58.280Z,102654.25
2023-04-16T12:40:24.675Z,102663.31
2023-04-16T12:42:51.244Z,102660.09
2023-04-16T12:45:17.602Z,102655.84
2023-04-16T12:47:43.978Z,102664.34
2023-04-16T12:50:10.812Z,102665.94
2023-04-16T12:52:37.276Z,102658.50
2023-04-16T12:55:03.763Z,102661.13
2023-04-16T12:57:30.332Z,102669.69
2023-04-16T12:59:57.534Z,102661.13
2023-04-16T13:02:25.302Z,102661.69
2023-04-16T13:04:52.691Z,102666.44
2023-04-16T13:07:19.710Z,102661.66
2023-04-16T13:09:46.573Z,102653.13
2023-04-16T13:14:53.702Z,102653.13
2023-04-16T13:17:20.094Z,102663.22
2023-04-16T13:19:46.590Z,102656.81
2023-04-16T13:22:12.988Z,102662.59
2023-04-16T13:24:39.489Z,102658.88
2023-04-16T13:27:07.862Z,102664.41
2023-04-16T13:29:36.590Z,102651.09
2023-04-16T13:32:03.950Z,102652.91
2023-04-16T13:34:30.422Z,102655.78
2023-04-16T13:36:56.731Z,102655.28
2023-04-16T13:39:23.077Z,102651.06
2023-04-16T13:41:50.290Z,102657.47
2023-04-16T13:44:16.611Z,102653.97
2023-04-16T13:46:47.784Z,102665.97
2023-04-16T13:49:14.692Z,102656.94
2023-04-16T13:51:44.583Z,102660.97
2023-04-16T13:54:10.957Z,102661.97
2023-04-16T13:56:37.426Z,102658.00
2023-04-16T13:59:03.810Z,102662.50
2023-04-16T14:01:30.220Z,102664.59
2023-04-16T14:03:56.622Z,102655.03
2023-04-16T14:06:22.958Z,102654.22
2023-04-16T14:08:49.309Z,102655.84
2023-04-16T14:11:15.750Z,102650.22
2023-04-16T14:13:42.214Z,102650.50
2023-04-16T14:16:08.630Z,102648.56
2023-04-16T14:18:35.842Z,102652.69
2023-04-16T14:21:02.181Z,102654.25
2023-04-16T14:23:28.604Z,102653.94
2023-04-16T14:25:55.266Z,102659.13
2023-04-16T14:28:21.633Z,102648.13
2023-04-16T14:30:47.975Z,102657.72
2023-04-16T14:33:14.293Z,102653.41
2023-04-16T14:35:41.328Z,102651.84
2023-04-16T14:38:07.727Z,102652.91
2023-04-16T14:40:34.493Z,102653.41
2023-04-16T14:43:00.940Z,102662.03
2023-04-16T14:45:28.863Z,102660.72
2023-04-16T14:47:55.246Z,102660.50
2023-04-16T14:50:21.748Z,102662.59
2023-04-16T14:52:48.320Z,102658.44
2023-04-16T14:55:14.645Z,102650.44
2023-04-16T14:57:41.576Z,102646.34
2023-04-16T15:00:11.841Z,102646.94
2023-04-16T15:02:38.490Z,102643.88
2023-04-16T15:05:05.338Z,102644.88
2023-04-16T15:07:31.697Z,102645.13
2023-04-16T15:09:58.693Z,102645.25
2023-04-16T15:12:26.365Z,102646.06
2023-04-16T15:14:52.730Z,102645.50
2023-04-16T15:17:20.333Z,102643.34
2023-04-16T15:19:46.800Z,102635.88
2023-04-16T15:22:14.668Z,102642.59
2023-04-16T15:24:41.099Z,102649.66
2023-04-16T15:27:08.522Z,102644.31
2023-04-16T15:29:36.845Z,102651.25
2023-04-16T15:32:03.290Z,102643.03
2023-04-16T15:34:30.280Z,102649.75
2023-04-16T15:36:56.615Z,102650.34
2023-04-16T15:39:22.940Z,102649.22
2023-04-16T15:42:00.717Z,102651.34
2023-04-16T15:44:28.120Z,102651.13
2023-04-16T15:46:54.505Z,102647.19
2023-04-16T15:49:20.868Z,102654.94
2023-04-16T15:51:47.270Z,102648.59
2023-04-16T15:54:13.694Z,102650.31
2023-04-16T15:56:40.160Z,102643.09
2023-04-16T15:59:06.522Z,102642.91
2023-04-16T16:01:33.991Z,102649.59
2023-04-16T16:04:00.650Z,102654.16
2023-04-16T16:06:27.169Z,102655.50
2023-04-16T16:08:54.426Z,102648.03
2023-04-16T16:11:21.737Z,102648.88
2023-04-16T16:13:48.223Z,102653.94
2023-04-16T16:16:15.295Z,102643.06
2023-04-16T16:18:42.161Z,102644.09
2023-04-16T16:21:08.693Z,102649.19
2023-04-16T16:23:35.035Z,102642.34
2023-04-16T16:26:01.629Z,102649.25
2023-04-16T16:28:28.068Z,102651.09
2023-04-16T16:30:55.476Z,102644.16
2023-04-16T16:33:22.013Z,102647.09
2023-04-16T16:35:48.385Z,102648.19
2023-04-16T16:38:15.221Z,102646.31
2023-04-16T16:40:41.532Z,102651.63
2023-04-16T16:43:08.139Z,102649.25
2023-04-16T16:45:34.492Z,102648.22
2023-04-16T16:48:00.893Z,102638.38
2023-04-16T16:50:27.447Z,102645.53
2023-04-16T16:52:53.846Z,102648.66
2023-04-16T16:55:20.860Z,102650.78
2023-04-16T16:57:47.236Z,102648.94
2023-04-16T17:00:15.078Z,102651.09
2023-04-16T17:02:41.893Z,102660.69
2023-04-16T17:05:09.007Z,102659.94
2023-04-16T17:07:36.093Z,102662.09
2023-04-16T17:10:05.307Z,102660.50
2023-04-16T17:12:33.026Z,102665.84
2023-04-16T17:14:59.351Z,102662.94
2023-04-16T17:17:27.017Z,102657.94
2023-04-16T17:19:53.686Z,102661.97
2023-04-16T17:22:20.010Z,102660.69
2023-04-16T17:24:47.087Z,102679.34
2023-04-16T17:27:13.481Z,102678.34
2023-04-16T17:29:39.812Z,102676.47
2023-04-16T17:32:06.223Z,102678.06
2023-04-16T17:34:32.584Z,102680.44
2023-04-16T17:36:58.890Z,102683.09
2023-04-16T17:39:25.337Z,102688.44
2023-04-16T17:41:54.667Z,102687.91
2023-04-16T17:44:22.875Z,102694.84
2023-04-16T17:46:49.193Z,102698.59
2023-04-16T17:49:15.607Z,102695.13
2023-04-16T17:51:44.317Z,102702.59
2023-04-16T17:54:10.906Z,102703.91
2023-04-16T17:56:37.633Z,102707.66
2023-04-16T17:59:04.631Z,102706.84
2023-04-16T18:01:31.115Z,102704.47
2023-04-16T18:03:57.690Z,102701.25
2023-04-16T18:06:24.122Z,102706.34
2023-04-16T18:08:50.527Z,102715.91
2023-04-16T18:11:16.867Z,102723.34
2023-04-16T18:13:43.531Z,102714.59
2023-04-16T18:16:16.884Z,102717.25
2023-04-16T18:18:44.340Z,102722.03
2023-04-16T18:21:10.770Z,102724.72
2023-04-16T18:23:37.198Z,102714.88
2023-04-16T18:26:03.721Z,102723.66
2023-04-16T18:28:30.226Z,102727.88
2023-04-16T18:30:58.994Z,102725.22
2023-04-16T18:33:44.398Z,102726.56
2023-04-16T18:36:14.562Z,102736.66
2023-04-16T18:38:52.931Z,102731.88
2023-04-16T18:41:23.886Z,102739.03
2023-04-16T18:43:50.478Z,102740.38
2023-04-16T18:46:17.027Z,102739.56
2023-04-16T18:48:45.071Z,102748.56
2023-04-16T18:51:11.911Z,102748.03
2023-04-16T18:53:39.276Z,102747.78
2023-04-16T18:56:05.834Z,102754.41
2023-04-16T18:58:32.271Z,102760.25
2023-04-16T19:00:58.640Z,102757.06
2023-04-16T19:03:27.223Z,102752.25
2023-04-16T19:05:53.941Z,102761.03
2023-04-16T19:08:20.541Z,102762.06
2023-04-16T19:10:50.198Z,102760.75
2023-04-16T19:13:16.984Z,102762.88
2023-04-16T19:15:43.297Z,102770.00
2023-04-16T19:18:09.694Z,102766.03
2023-04-16T19:20:36.877Z,102765.25
2023-04-16T19:23:08.811Z,102766.53
2023-04-16T19:25:36.424Z,102771.84
2023-04-16T19:28:03.677Z,102766.03
2023-04-16T19:30:30.471Z,102775.03
2023-04-16T19:32:56.909Z,102765.72
2023-04-16T19:35:23.382Z,102762.84
2023-04-16T19:37:50.414Z,102758.31
2023-04-16T19:40:16.905Z,102767.59
2023-04-16T19:42:45.169Z,102762.31
2023-04-16T19:45:11.520Z,102760.72
2023-04-16T19:47:37.915Z,102760.97
2023-04-16T19:50:04.484Z,102764.94
2023-04-16T19:52:30.834Z,102771.03
2023-04-16T19:54:57.195Z,102772.66
2023-04-16T19:57:23.577Z,102775.03
2023-04-16T19:59:50.060Z,102776.09
2023-04-16T20:02:16.424Z,102783.00
2023-04-16T20:04:42.779Z,102778.75
2023-04-16T20:07:09.115Z,102777.97
2023-04-16T20:09:35.707Z,102777.16
2023-04-16T20:12:02.619Z,102785.38
2023-04-16T20:14:28.931Z,102783.00
2023-04-16T20:16:55.337Z,102783.53
2023-04-16T20:19:22.035Z,102779.81
2023-04-16T20:21:48.360Z,102789.38
2023-04-16T20:24:15.339Z,102778.19
2023-04-16T20:26:41.830Z,102775.03
2023-04-16T20:29:09.979Z,102779.81
2023-04-16T20:31:36.574Z,102780.34
2023-04-16T20:34:03.707Z,102779.28
2023-04-16T20:36:30.321Z,102780.09
2023-04-16T20:38:56.663Z,102772.91
2023-04-16T20:41:24.970Z,102779.28
2023-04-16T20:43:52.857Z,102772.91
2023-04-16T20:46:24.305Z,102769.75
2023-04-16T20:48:51.574Z,102770.25
2023-04-16T20:51:17.943Z,102775.56
2023-04-16T20:53:44.396Z,102760.97
2023-04-16T20:56:14.544Z,102769.19
2023-04-16T20:58:41.447Z,102764.38
2023-04-16T21:01:07.830Z,102769.41
2023-04-16T21:03:34.386Z,102757.47
2023-04-16T21:06:01.657Z,102759.31
2023-04-16T21:08:28.034Z,102762.50
2023-04-16T21:10:54.384Z,102762.78
2023-04-16T21:13:21.514Z,102768.09
2023-04-16T21:15:47.975Z,102763.84
2023-04-16T21:18:14.450Z,102762.78
2023-04-16T21:20:40.909Z,102757.75
2023-04-16T21:23:07.714Z,102757.75
2023-04-16T21:25:34.062Z,102759.63
2023-04-16T21:28:00.449Z,102763.31
2023-04-16T21:30:27.052Z,102760.66
2023-04-16T21:32:53.427Z,102754.81
2023-04-16T21:35:20.000Z,102752.13
2023-04-16T21:37:46.358Z,102756.13
2023-04-16T21:40:12.873Z,102764.59
2023-04-16T21:42:40.006Z,102755.84
2023-04-16T21:45:10.130Z,102751.06
2023-04-16T21:47:36.904Z,102763.78
2023-04-16T21:50:03.590Z,102768.31
2023-04-16T21:52:30.469Z,102767.50
2023-04-16T21:54:56.797Z,102762.69
2023-04-16T21:57:23.159Z,102761.13
2023-04-16T21:59:49.504Z,102769.59
2023-04-16T22:02:15.891Z,102771.22
2023-04-16T22:04:43.443Z,102767.50
2023-04-16T22:07:09.874Z,102768.56
2023-04-16T22:09:36.385Z,102761.63
2023-04-16T22:12:02.884Z,102759.00
2023-04-16T22:14:30.118Z,102761.63
2023-04-16T22:16:56.604Z,102755.81
2023-04-16T22:19:23.045Z,102766.16
2023-04-16T22:21:49.465Z,102769.06
2023-04-16T22:24:15.799Z,102756.59
2023-04-16T22:26:42.325Z,102756.59
2023-04-16T22:29:09.088Z,102748.38
2023-04-16T22:31:36.051Z,102759.53
2023-04-16T22:34:03.530Z,102753.91
2023-04-16T22:36:30.865Z,102747.81
2023-04-16T22:38:57.317Z,102754.97
2023-04-16T22:41:23.739Z,102760.56
2023-04-16T22:43:52.474Z,102763.19
2023-04-16T22:46:22.296Z,102760.78
2023-04-16T22:48:48.808Z,102750.41
2023-04-16T22:51:15.179Z,102746.19
2023-04-16T22:53:41.734Z,102754.09
2023-04-16T22:56:08.089Z,102763.13
2023-04-16T22:58:34.520Z,102754.09
2023-04-16T23:01:01.516Z,102749.88
2023-04-16T23:03:28.404Z,102755.16
2023-04-16T23:05:54.859Z,102754.09
2023-04-16T23:08:21.170Z,102756.53
2023-04-16T23:10:47.490Z,102757.31
2023-04-16T23:13:13.842Z,102766.06
2023-04-16T23:15:40.384Z,102765.78
2023-04-16T23:18:06.891Z,102755.16
2023-04-16T23:20:33.268Z,102762.81
2023-04-16T23:22:59.595Z,102763.66
2023-04-16T23:25:25.945Z,102759.94
2023-04-16T23:27:52.335Z,102762.59
2023-04-16T23:30:18.723Z,102763.66
2023-04-16T23:32:45.136Z,102766.31
2023-04-16T23:35:11.489Z,102765.78
2023-04-16T23:37:37.887Z,102769.22
2023-04-16T23:40:04.882Z,102770.00
2023-04-16T23:42:31.214Z,102773.47
2023-04-16T23:44:57.536Z,102767.38
2023-04-16T23:47:23.868Z,102769.22
2023-04-16T23:49:50.308Z,102766.03
2023-04-16T23:52:16.627Z,102773.44
2023-04-16T23:54:42.950Z,102768.13
2023-04-16T23:57:09.831Z,102770.78
2023-04-16T23:59:36.156Z,102774.50
